Terminal Aerodrome Forecast
Issued by NWS

Home | Current Version | Previous Version | Text Only | Print | Product List | Glossary On
Versions: 1 2 3 4 5 6 7 8 9 10 11 12 13 14 15 16 17 18 19 20
306
FTUS43 KLSX 271000 AAA
TAFSUS
TAF AMD
KSUS 271000Z 2710/2806 00000KT 5SM BR FEW070
      TEMPO 2710/2713 2SM BR
     FM271500 16006KT P6SM SCT130
     FM272300 14007KT P6SM BKN110
     FM280400 15008KT P6SM BKN025=

USA.gov is the U.S. government's official web portal to all federal, state and local government web resources and services.